createdAt,value
2019-03-23T00:00:16.661Z,102397.86
2019-03-23T00:03:21.635Z,102394.41
2019-03-23T00:06:30.884Z,102385.07
2019-03-23T00:09:33.158Z,102373.93
2019-03-23T00:12:37.990Z,102375.59
2019-03-23T00:15:42.823Z,102364.58
2019-03-23T00:18:47.747Z,102365.41
2019-03-23T00:21:52.730Z,102364.50
2019-03-23T00:24:57.666Z,102371.07
2019-03-23T00:28:02.532Z,102374.69
2019-03-23T00:31:07.370Z,102379.13
2019-03-23T00:34:12.224Z,102368.97
2019-03-23T00:37:17.072Z,102379.57
2019-03-23T00:40:21.918Z,102368.55
2019-03-23T00:43:26.884Z,102372.85
2019-03-23T00:46:31.883Z,102368.34
2019-03-23T00:49:36.812Z,102374.09
2019-03-23T00:52:41.684Z,102377.91
2019-03-23T00:55:47.606Z,102373.39
2019-03-23T00:58:52.510Z,102382.00
2019-03-23T01:01:57.358Z,102380.40
2019-03-23T01:05:02.209Z,102380.55
2019-03-23T01:08:07.061Z,102379.64
2019-03-23T01:11:12.065Z,102361.99
2019-03-23T01:14:16.928Z,102365.52
2019-03-23T01:17:23.553Z,102358.77
2019-03-23T01:20:28.389Z,102363.92
2019-03-23T01:23:33.218Z,102351.16
2019-03-23T01:26:38.051Z,102361.20
2019-03-23T01:29:42.971Z,102370.08
2019-03-23T01:32:47.917Z,102344.69
2019-03-23T01:35:54.196Z,102372.09
2019-03-23T01:38:59.114Z,102362.36
2019-03-23T01:42:04.237Z,102356.59
2019-03-23T01:45:09.459Z,102357.91
2019-03-23T01:48:16.142Z,102351.47
2019-03-23T01:51:20.980Z,102355.42
2019-03-23T01:54:25.801Z,102359.31
2019-03-23T01:57:30.635Z,102361.47
2019-03-23T02:00:35.603Z,102363.19
2019-03-23T02:03:40.527Z,102367.20
2019-03-23T02:06:45.756Z,102356.48
2019-03-23T02:09:50.566Z,102347.67
2019-03-23T02:12:55.509Z,102348.08
2019-03-23T02:16:00.355Z,102344.02
2019-03-23T02:19:06.739Z,102347.45
2019-03-23T02:22:11.659Z,102344.73
2019-03-23T02:25:16.533Z,102342.35
2019-03-23T02:28:21.391Z,102335.42
2019-03-23T02:31:26.242Z,102323.20
2019-03-23T02:34:31.060Z,102327.95
2019-03-23T02:37:35.891Z,102318.34
2019-03-23T02:40:40.700Z,102323.08
2019-03-23T02:43:45.538Z,102324.40
2019-03-23T02:46:50.364Z,102321.58
2019-03-23T02:49:55.292Z,102322.97
2019-03-23T02:53:00.141Z,102330.81
2019-03-23T02:56:05.076Z,102328.13
2019-03-23T02:59:09.920Z,102323.59
2019-03-23T03:02:16.564Z,102325.25
2019-03-23T03:05:21.403Z,102326.96
2019-03-23T03:08:26.294Z,102334.55
2019-03-23T03:11:31.152Z,102340.99
2019-03-23T03:14:38.117Z,102335.27
2019-03-23T03:17:42.959Z,102338.20
2019-03-23T03:20:47.907Z,102342.53
2019-03-23T03:23:52.753Z,102347.89
2019-03-23T03:26:57.666Z,102348.06
2019-03-23T03:30:02.550Z,102354.67
2019-03-23T03:33:07.454Z,102357.53
2019-03-23T03:36:12.306Z,102357.80
2019-03-23T03:39:17.241Z,102355.73
2019-03-23T03:42:22.173Z,102359.17
2019-03-23T03:45:28.041Z,102359.97
2019-03-23T03:48:35.606Z,102362.48
2019-03-23T03:51:40.454Z,102353.67
2019-03-23T03:54:45.456Z,102354.48
2019-03-23T03:57:50.306Z,102356.33
2019-03-23T04:00:55.251Z,102348.16
2019-03-23T04:04:00.225Z,102347.69
2019-03-23T04:07:05.166Z,102339.45
2019-03-23T04:10:10.325Z,102349.68
2019-03-23T04:13:15.231Z,102353.36
2019-03-23T04:16:20.085Z,102338.54
2019-03-23T04:19:24.920Z,102333.65
2019-03-23T04:22:29.777Z,102332.33
2019-03-23T04:25:35.131Z,102329.69
2019-03-23T04:28:39.949Z,102332.92
2019-03-23T04:31:45.012Z,102338.19
2019-03-23T04:34:49.946Z,102341.05
2019-03-23T04:37:54.807Z,102337.58
2019-03-23T04:40:59.745Z,102340.05
2019-03-23T04:44:04.566Z,102349.16
2019-03-23T04:47:09.406Z,102346.58
2019-03-23T04:50:14.552Z,102362.94
2019-03-23T04:53:19.406Z,102371.19
2019-03-23T04:56:24.241Z,102372.59
2019-03-23T04:59:29.070Z,102373.84
2019-03-23T05:02:33.919Z,102372.95
2019-03-23T05:05:38.823Z,102371.91
2019-03-23T05:08:46.240Z,102370.62
2019-03-23T05:11:51.068Z,102366.17
2019-03-23T05:14:56.171Z,102376.24
2019-03-23T05:18:01.133Z,102368.34
2019-03-23T05:21:05.976Z,102378.18
2019-03-23T05:24:10.939Z,102372.06
2019-03-23T05:27:15.789Z,102378.73
2019-03-23T05:30:20.629Z,102383.73
2019-03-23T05:33:25.500Z,102389.40
2019-03-23T05:36:30.483Z,102392.80
2019-03-23T05:39:35.315Z,102405.59
2019-03-23T05:42:40.170Z,102406.08
2019-03-23T05:45:45.010Z,102403.94
2019-03-23T05:48:49.939Z,102404.86
2019-03-23T05:51:54.888Z,102413.78
2019-03-23T05:54:59.853Z,102415.52
2019-03-23T05:58:07.944Z,102410.89
2019-03-23T06:01:12.878Z,102412.55
2019-03-23T06:04:17.899Z,102423.19
2019-03-23T06:07:22.832Z,102428.92
2019-03-23T06:10:30.717Z,102431.64
2019-03-23T06:13:35.562Z,102436.51
2019-03-23T06:16:40.508Z,102430.89
2019-03-23T06:19:45.442Z,102424.70
2019-03-23T06:22:50.274Z,102407.52
2019-03-23T06:25:56.404Z,102406.33
2019-03-23T06:29:02.905Z,102403.30
2019-03-23T06:32:10.099Z,102406.09
2019-03-23T06:35:15.095Z,102395.56
2019-03-23T06:38:20.020Z,102396.06
2019-03-23T06:41:24.860Z,102401.93
2019-03-23T06:44:29.872Z,102410.26
2019-03-23T06:47:34.790Z,102411.53
2019-03-23T06:50:39.721Z,102410.77
2019-03-23T06:53:44.808Z,102423.11
2019-03-23T06:56:49.695Z,102414.33
2019-03-23T06:59:54.720Z,102413.97
2019-03-23T07:02:59.662Z,102422.83
2019-03-23T07:06:04.621Z,102435.27
2019-03-23T07:09:16.046Z,102429.93
2019-03-23T07:12:16.134Z,102427.77
2019-03-23T07:15:21.081Z,102416.97
2019-03-23T07:18:25.912Z,102424.48
2019-03-23T07:21:30.838Z,102417.94
2019-03-23T07:24:35.737Z,102423.75
2019-03-23T07:27:40.581Z,102435.34
2019-03-23T07:30:45.524Z,102428.38
2019-03-23T07:33:50.477Z,102432.05
2019-03-23T07:36:55.328Z,102441.38
2019-03-23T07:40:00.473Z,102430.51
2019-03-23T07:43:05.344Z,102434.10
2019-03-23T07:46:13.240Z,102428.52
2019-03-23T07:49:18.089Z,102435.48
2019-03-23T07:52:23.036Z,102436.86
2019-03-23T07:55:27.873Z,102439.55
2019-03-23T07:58:32.822Z,102441.78
2019-03-23T08:01:39.414Z,102440.97
2019-03-23T08:04:44.294Z,102455.14
2019-03-23T08:07:49.263Z,102450.47
2019-03-23T08:10:56.461Z,102451.88
2019-03-23T08:14:01.308Z,102457.61
2019-03-23T08:17:06.168Z,102454.99
2019-03-23T08:20:10.997Z,102465.14
2019-03-23T08:23:15.962Z,102469.16
2019-03-23T08:26:20.855Z,102477.09
2019-03-23T08:29:25.763Z,102480.64
2019-03-23T08:32:30.620Z,102469.20
2019-03-23T08:35:35.471Z,102478.96
2019-03-23T08:38:41.518Z,102469.27
2019-03-23T08:41:46.450Z,102475.52
2019-03-23T08:44:51.278Z,102479.92
2019-03-23T08:47:56.212Z,102477.73
2019-03-23T08:51:01.119Z,102477.80
2019-03-23T08:54:06.142Z,102479.62
2019-03-23T08:57:11.004Z,102484.56
2019-03-23T09:00:16.096Z,102482.36
2019-03-23T09:03:20.986Z,102486.40
2019-03-23T09:06:25.938Z,102489.05
2019-03-23T09:09:30.789Z,102489.90
2019-03-23T09:12:36.728Z,102494.75
2019-03-23T09:15:41.761Z,102489.91
2019-03-23T09:18:46.699Z,102492.22
2019-03-23T09:21:51.547Z,102509.04
2019-03-23T09:24:56.912Z,102498.39
2019-03-23T09:28:02.121Z,102479.38
2019-03-23T09:31:06.960Z,102487.37
2019-03-23T09:34:11.801Z,102493.98
2019-03-23T09:37:16.833Z,102507.77
2019-03-23T09:40:21.682Z,102508.22
2019-03-23T09:43:26.638Z,102507.69
2019-03-23T09:46:31.583Z,102514.89
2019-03-23T09:49:36.430Z,102524.21
2019-03-23T09:52:41.588Z,102519.33
2019-03-23T09:55:46.419Z,102532.62
2019-03-23T09:58:51.271Z,102532.66
2019-03-23T10:01:57.101Z,102540.63
2019-03-23T10:05:01.998Z,102551.26
2019-03-23T10:08:06.956Z,102552.10
2019-03-23T10:11:11.905Z,102553.81
2019-03-23T10:14:16.838Z,102551.64
2019-03-23T10:17:21.913Z,102557.42
2019-03-23T10:20:26.965Z,102554.76
2019-03-23T10:23:31.918Z,102556.04
2019-03-23T10:26:38.242Z,102564.48
2019-03-23T10:29:43.089Z,102562.16
2019-03-23T10:32:47.949Z,102573.66
2019-03-23T10:35:52.824Z,102567.48
2019-03-23T10:38:59.280Z,102572.27
2019-03-23T10:42:04.325Z,102572.33
2019-03-23T10:45:09.811Z,102571.93
2019-03-23T10:48:14.633Z,102578.55
2019-03-23T10:51:19.684Z,102576.75
2019-03-23T10:54:24.544Z,102578.02
2019-03-23T10:57:29.393Z,102584.22
2019-03-23T11:00:34.342Z,102584.72
2019-03-23T11:03:39.204Z,102575.95
2019-03-23T11:06:44.060Z,102579.98
2019-03-23T11:09:48.937Z,102578.63
2019-03-23T11:12:53.796Z,102566.27
2019-03-23T11:15:59.750Z,102574.23
2019-03-23T11:19:13.270Z,102568.18
2019-03-23T11:22:11.375Z,102570.05
2019-03-23T11:25:16.234Z,102575.83
2019-03-23T11:28:21.192Z,102568.69
2019-03-23T11:31:27.458Z,102576.73
2019-03-23T11:34:33.416Z,102580.72
2019-03-23T11:37:38.542Z,102585.61
2019-03-23T11:40:52.757Z,102594.91
2019-03-23T11:43:52.049Z,102602.04
2019-03-23T11:46:59.996Z,102610.45
2019-03-23T11:50:05.606Z,102617.55
2019-03-23T11:53:10.564Z,102623.27
2019-03-23T11:56:16.631Z,102634.80
2019-03-23T11:59:21.493Z,102623.75
2019-03-23T12:02:26.362Z,102625.94
2019-03-23T12:05:31.242Z,102617.55
2019-03-23T12:08:36.131Z,102621.11
2019-03-23T12:11:43.140Z,102627.33
2019-03-23T12:14:48.003Z,102625.55
2019-03-23T12:17:52.850Z,102615.41
2019-03-23T12:20:57.689Z,102613.63
2019-03-23T12:24:02.537Z,102618.50
2019-03-23T12:27:07.633Z,102621.16
2019-03-23T12:30:14.567Z,102619.82
2019-03-23T12:33:21.430Z,102622.91
2019-03-23T12:36:26.051Z,102623.80
2019-03-23T12:39:31.024Z,102627.78
2019-03-23T12:42:36.010Z,102630.93
2019-03-23T12:45:41.033Z,102629.16
2019-03-23T12:48:45.887Z,102638.49
2019-03-23T12:51:53.034Z,102640.70
2019-03-23T12:54:57.898Z,102646.45
2019-03-23T12:58:05.739Z,102642.92
2019-03-23T13:01:15.095Z,102647.36
2019-03-23T13:04:19.962Z,102651.36
2019-03-23T13:07:24.795Z,102650.05
2019-03-23T13:10:29.640Z,102646.48
2019-03-23T13:13:35.982Z,102661.59
2019-03-23T13:16:40.946Z,102659.38
2019-03-23T13:19:45.934Z,102666.48
2019-03-23T13:22:50.787Z,102666.93
2019-03-23T13:25:55.726Z,102673.03
2019-03-23T13:29:00.623Z,102665.95
2019-03-23T13:32:05.704Z,102665.48
2019-03-23T13:35:11.448Z,102682.70
2019-03-23T13:38:16.300Z,102684.42
2019-03-23T13:41:23.932Z,102691.17
2019-03-23T13:44:28.757Z,102694.66
2019-03-23T13:47:33.777Z,102692.50
2019-03-23T13:50:40.443Z,102690.69
2019-03-23T13:53:45.464Z,102693.25
2019-03-23T13:56:50.334Z,102694.94
2019-03-23T13:59:55.207Z,102691.67
2019-03-23T14:03:00.095Z,102706.22
2019-03-23T14:06:05.149Z,102698.98
2019-03-23T14:09:10.021Z,102710.64
2019-03-23T14:12:14.979Z,102695.98
2019-03-23T14:15:21.356Z,102710.98
2019-03-23T14:18:27.432Z,102703.66
2019-03-23T14:21:32.271Z,102712.19
2019-03-23T14:24:37.119Z,102714.66
2019-03-23T14:27:42.100Z,102711.48
2019-03-23T14:30:46.945Z,102710.77
2019-03-23T14:33:51.782Z,102711.45
2019-03-23T14:36:56.822Z,102710.98
2019-03-23T14:40:01.688Z,102712.79
2019-03-23T14:43:08.998Z,102716.17
2019-03-23T14:46:15.409Z,102716.03
2019-03-23T14:49:25.933Z,102712.52
2019-03-23T14:52:30.775Z,102710.05
2019-03-23T14:55:37.438Z,102713.86
2019-03-23T14:58:44.404Z,102707.91
2019-03-23T15:01:49.276Z,102709.45
2019-03-23T15:04:54.269Z,102722.05
2019-03-23T15:07:59.156Z,102723.52
2019-03-23T15:11:04.258Z,102714.08
2019-03-23T15:14:09.098Z,102723.67
2019-03-23T15:17:13.958Z,102717.16
2019-03-23T15:20:55.987Z,102726.72
2019-03-23T15:36:27.741Z,102742.27
2019-03-23T15:39:39.332Z,102744.45
2019-03-23T15:47:54.235Z,102746.24
2019-03-23T15:55:56.544Z,102760.73
2019-03-23T15:59:10.287Z,102766.75
2019-03-23T16:06:01.833Z,102777.87
2019-03-23T16:13:12.035Z,102769.75
2019-03-23T16:25:09.949Z,102796.83
2019-03-23T16:29:18.201Z,102799.41
2019-03-23T16:33:33.589Z,102794.27
2019-03-23T16:45:26.274Z,102812.65
2019-03-23T17:13:04.616Z,102823.45
2019-03-23T17:35:56.298Z,102841.00
2019-03-23T17:39:58.803Z,102844.59
2019-03-23T17:58:52.244Z,102858.74
2019-03-23T18:01:58.059Z,102856.34
2019-03-23T18:08:55.368Z,102861.41
2019-03-23T18:12:23.374Z,102863.48
2019-03-23T18:31:08.550Z,102877.44
2019-03-23T18:34:24.328Z,102876.36
2019-03-23T18:37:37.450Z,102883.84
2019-03-23T18:40:51.520Z,102880.33
2019-03-23T18:44:16.352Z,102880.15
2019-03-23T18:48:59.347Z,102889.55
2019-03-23T18:52:57.217Z,102889.30
2019-03-23T18:56:11.336Z,102895.84
2019-03-23T19:03:23.352Z,102902.72
2019-03-23T19:06:53.487Z,102903.16
2019-03-23T19:10:26.720Z,102912.28
2019-03-23T19:13:57.697Z,102909.03
2019-03-23T19:36:43.697Z,102932.59
2019-03-23T19:39:49.544Z,102925.86
2019-03-23T19:42:55.545Z,102931.98
2019-03-23T19:46:08.914Z,102928.41
2019-03-23T19:49:18.286Z,102930.10
2019-03-23T19:53:11.788Z,102924.34
2019-03-23T19:56:19.358Z,102925.17
2019-03-23T19:59:25.418Z,102925.56
2019-03-23T20:02:31.332Z,102927.71
2019-03-23T20:05:41.999Z,102937.47
2019-03-23T20:08:56.929Z,102942.13
2019-03-23T20:12:15.093Z,102944.20
2019-03-23T20:16:11.742Z,102943.72
2019-03-23T20:18:58.699Z,102953.86
2019-03-23T20:26:11.444Z,102936.15
2019-03-23T20:37:08.524Z,102943.27
2019-03-23T20:44:30.995Z,102956.89
2019-03-23T20:51:31.837Z,102953.43
2019-03-23T21:07:11.045Z,102951.25
2019-03-23T21:14:32.343Z,102969.77
2019-03-23T21:17:51.380Z,102968.45
2019-03-23T21:21:05.748Z,102965.03
2019-03-23T21:24:47.735Z,102968.22
2019-03-23T21:28:12.798Z,102970.33
2019-03-23T21:34:47.773Z,102967.38
2019-03-23T21:42:19.955Z,102980.47
2019-03-23T21:45:54.499Z,102978.58
2019-03-23T21:48:57.296Z,102978.92
2019-03-23T21:56:37.182Z,102964.42
2019-03-23T22:00:17.735Z,102959.12
2019-03-23T22:03:50.035Z,102958.70
2019-03-23T22:07:03.480Z,102958.59
2019-03-23T22:11:04.212Z,102965.62
2019-03-23T22:18:18.797Z,102965.45
2019-03-23T22:21:25.409Z,102970.52
2019-03-23T22:24:31.430Z,102962.50
2019-03-23T22:27:37.086Z,102959.41
2019-03-23T22:30:44.125Z,102963.13
2019-03-23T22:33:52.407Z,102962.05
2019-03-23T22:37:01.624Z,102962.88
2019-03-23T22:40:28.144Z,102967.73
2019-03-23T22:43:42.725Z,102962.75
2019-03-23T22:46:57.561Z,102960.24
2019-03-23T22:50:12.610Z,102965.09
2019-03-23T22:53:30.076Z,102954.56
2019-03-23T22:56:38.711Z,102954.27
2019-03-23T23:03:34.971Z,102947.48
2019-03-23T23:06:43.385Z,102944.92
2019-03-23T23:09:49.417Z,102937.44
2019-03-23T23:13:25.013Z,102942.70
2019-03-23T23:16:30.647Z,102942.29
2019-03-23T23:19:44.400Z,102937.44
2019-03-23T23:30:50.821Z,102932.21
2019-03-23T23:32:40.355Z,102932.13
2019-03-23T23:34:08.770Z,102935.17
2019-03-23T23:37:36.947Z,102937.65
2019-03-23T23:45:14.892Z,102934.81
2019-03-23T23:48:19.812Z,102936.38
2019-03-23T23:51:29.506Z,102937.16
2019-03-23T23:54:56.818Z,102935.75
2019-03-23T23:58:22.592Z,102932.95
